sensor_id;sensor_type;location;lat;lon;timestamp;temperature;humidity
52513;DHT22;38422;53.172;6.974;2022-09-12T00:00:31;16.90;99.90
52513;DHT22;38422;53.172;6.974;2022-09-12T00:02:57;16.90;99.90
52513;DHT22;38422;53.172;6.974;2022-09-12T00:05:24;16.80;99.90
52513;DHT22;38422;53.172;6.974;2022-09-12T00:07:50;16.80;99.90
52513;DHT22;38422;53.172;6.974;2022-09-12T00:10:16;16.80;99.90
52513;DHT22;38422;53.172;6.974;2022-09-12T00:12:42;16.80;99.90
52513;DHT22;38422;53.172;6.974;2022-09-12T00:15:09;16.80;99.90
52513;DHT22;38422;53.172;6.974;2022-09-12T00:17:36;16.70;99.90
52513;DHT22;38422;53.172;6.974;2022-09-12T00:20:04;16.70;99.90
52513;DHT22;38422;53.172;6.974;2022-09-12T00:22:31;16.70;99.90
52513;DHT22;38422;53.172;6.974;2022-09-12T00:24:56;16.70;99.90
52513;DHT22;38422;53.172;6.974;2022-09-12T00:27:22;16.70;99.90
52513;DHT22;38422;53.172;6.974;2022-09-12T00:29:47;16.70;99.90
52513;DHT22;38422;53.172;6.974;2022-09-12T00:32:13;16.60;99.90
52513;DHT22;38422;53.172;6.974;2022-09-12T00:34:38;16.60;99.90
52513;DHT22;38422;53.172;6.974;2022-09-12T00:37:04;16.60;99.90
52513;DHT22;38422;53.172;6.974;2022-09-12T00:39:30;16.60;99.90
52513;DHT22;38422;53.172;6.974;2022-09-12T00:41:55;16.60;99.90
52513;DHT22;38422;53.172;6.974;2022-09-12T00:46:47;16.50;99.90
52513;DHT22;38422;53.172;6.974;2022-09-12T00:52:25;16.40;99.90
52513;DHT22;38422;53.172;6.974;2022-09-12T00:55:01;16.40;99.90
52513;DHT22;38422;53.172;6.974;2022-09-12T00:57:32;16.40;99.90
52513;DHT22;38422;53.172;6.974;2022-09-12T01:00:05;16.40;99.90
52513;DHT22;38422;53.172;6.974;2022-09-12T01:02:36;16.40;99.90
52513;DHT22;38422;53.172;6.974;2022-09-12T01:05:02;16.30;99.90
52513;DHT22;38422;53.172;6.974;2022-09-12T01:07:28;16.30;99.90
52513;DHT22;38422;53.172;6.974;2022-09-12T01:09:54;16.30;99.90
52513;DHT22;38422;53.172;6.974;2022-09-12T01:12:20;16.30;99.90
52513;DHT22;38422;53.172;6.974;2022-09-12T01:14:46;16.30;99.90
52513;DHT22;38422;53.172;6.974;2022-09-12T01:17:14;16.30;99.90
52513;DHT22;38422;53.172;6.974;2022-09-12T01:20:15;16.20;99.90
52513;DHT22;38422;53.172;6.974;2022-09-12T01:22:54;16.20;99.90
52513;DHT22;38422;53.172;6.974;2022-09-12T01:36:09;16.00;99.90
52513;DHT22;38422;53.172;6.974;2022-09-12T01:38:48;16.00;99.90
52513;DHT22;38422;53.172;6.974;2022-09-12T01:41:28;16.00;99.90
52513;DHT22;38422;53.172;6.974;2022-09-12T01:46:46;15.90;99.90
52513;DHT22;38422;53.172;6.974;2022-09-12T01:49:19;15.90;99.90
52513;DHT22;38422;53.172;6.974;2022-09-12T01:55:23;15.90;99.90
52513;DHT22;38422;53.172;6.974;2022-09-12T01:57:59;15.80;99.90
52513;DHT22;38422;53.172;6.974;2022-09-12T02:00:27;15.80;99.90
52513;DHT22;38422;53.172;6.974;2022-09-12T02:03:03;15.80;99.90
52513;DHT22;38422;53.172;6.974;2022-09-12T02:05:34;15.80;99.90
52513;DHT22;38422;53.172;6.974;2022-09-12T02:08:06;15.70;99.90
52513;DHT22;38422;53.172;6.974;2022-09-12T02:10:45;15.70;99.90
52513;DHT22;38422;53.172;6.974;2022-09-12T02:13:22;15.70;99.90
52513;DHT22;38422;53.172;6.974;2022-09-12T02:15:55;15.70;99.90
52513;DHT22;38422;53.172;6.974;2022-09-12T02:18:24;15.70;99.90
52513;DHT22;38422;53.172;6.974;2022-09-12T02:20:51;15.70;99.90
52513;DHT22;38422;53.172;6.974;2022-09-12T02:23:23;15.70;99.90
52513;DHT22;38422;53.172;6.974;2022-09-12T02:25:53;15.70;99.90
52513;DHT22;38422;53.172;6.974;2022-09-12T02:28:25;15.60;99.90
52513;DHT22;38422;53.172;6.974;2022-09-12T02:31:08;15.60;99.90
52513;DHT22;38422;53.172;6.974;2022-09-12T02:36:37;15.60;99.90
52513;DHT22;38422;53.172;6.974;2022-09-12T02:39:04;15.60;99.90
52513;DHT22;38422;53.172;6.974;2022-09-12T02:41:30;15.60;99.90
52513;DHT22;38422;53.172;6.974;2022-09-12T02:43:56;15.60;99.90
52513;DHT22;38422;53.172;6.974;2022-09-12T02:46:38;15.60;99.90
52513;DHT22;38422;53.172;6.974;2022-09-12T02:49:05;15.50;99.90
52513;DHT22;38422;53.172;6.974;2022-09-12T02:51:31;15.50;99.90
52513;DHT22;38422;53.172;6.974;2022-09-12T02:53:58;15.50;99.90
52513;DHT22;38422;53.172;6.974;2022-09-12T02:56:29;15.50;99.90
52513;DHT22;38422;53.172;6.974;2022-09-12T02:59:04;15.50;99.90
52513;DHT22;38422;53.172;6.974;2022-09-12T03:10:26;15.30;99.90
52513;DHT22;38422;53.172;6.974;2022-09-12T03:15:57;15.10;99.90
52513;DHT22;38422;53.172;6.974;2022-09-12T03:19:08;15.20;99.90
52513;DHT22;38422;53.172;6.974;2022-09-12T03:24:26;15.20;99.90
52513;DHT22;38422;53.172;6.974;2022-09-12T03:26:57;15.20;99.90
52513;DHT22;38422;53.172;6.974;2022-09-12T03:29:26;15.20;99.90
52513;DHT22;38422;53.172;6.974;2022-09-12T03:31:54;15.20;99.90
52513;DHT22;38422;53.172;6.974;2022-09-12T03:34:21;15.20;99.90
52513;DHT22;38422;53.172;6.974;2022-09-12T03:36:48;15.20;99.90
52513;DHT22;38422;53.172;6.974;2022-09-12T03:39:14;15.30;99.90
52513;DHT22;38422;53.172;6.974;2022-09-12T03:41:40;15.30;99.90
52513;DHT22;38422;53.172;6.974;2022-09-12T03:44:06;15.30;99.90
52513;DHT22;38422;53.172;6.974;2022-09-12T03:46:31;15.30;99.90
52513;DHT22;38422;53.172;6.974;2022-09-12T03:48:57;15.20;99.90
52513;DHT22;38422;53.172;6.974;2022-09-12T03:51:23;15.20;99.90
52513;DHT22;38422;53.172;6.974;2022-09-12T03:53:48;15.20;99.90
52513;DHT22;38422;53.172;6.974;2022-09-12T03:56:14;15.10;99.90
52513;DHT22;38422;53.172;6.974;2022-09-12T03:58:40;15.10;99.90
52513;DHT22;38422;53.172;6.974;2022-09-12T04:01:10;15.10;99.90
52513;DHT22;38422;53.172;6.974;2022-09-12T04:03:46;15.10;99.90
52513;DHT22;38422;53.172;6.974;2022-09-12T04:06:13;15.10;99.90
52513;DHT22;38422;53.172;6.974;2022-09-12T04:08:39;15.10;99.90
52513;DHT22;38422;53.172;6.974;2022-09-12T04:11:08;15.10;99.90
52513;DHT22;38422;53.172;6.974;2022-09-12T04:13:35;15.10;99.90
52513;DHT22;38422;53.172;6.974;2022-09-12T04:16:01;15.10;99.90
52513;DHT22;38422;53.172;6.974;2022-09-12T04:18:27;15.10;99.90
52513;DHT22;38422;53.172;6.974;2022-09-12T04:20:52;15.10;99.90
52513;DHT22;38422;53.172;6.974;2022-09-12T04:23:18;15.10;99.90
52513;DHT22;38422;53.172;6.974;2022-09-12T04:25:52;15.10;99.90
52513;DHT22;38422;53.172;6.974;2022-09-12T04:28:17;15.00;99.90
52513;DHT22;38422;53.172;6.974;2022-09-12T04:30:43;15.00;99.90
52513;DHT22;38422;53.172;6.974;2022-09-12T04:33:09;15.00;99.90
52513;DHT22;38422;53.172;6.974;2022-09-12T04:35:34;15.00;99.90
52513;DHT22;38422;53.172;6.974;2022-09-12T04:38:01;15.00;99.90
52513;DHT22;38422;53.172;6.974;2022-09-12T04:40:28;14.90;99.90
52513;DHT22;38422;53.172;6.974;2022-09-12T04:42:54;14.90;99.90
52513;DHT22;38422;53.172;6.974;2022-09-12T04:45:21;14.90;99.90
52513;DHT22;38422;53.172;6.974;2022-09-12T04:47:46;14.90;99.90
52513;DHT22;38422;53.172;6.974;2022-09-12T04:50:12;14.90;99.90
52513;DHT22;38422;53.172;6.974;2022-09-12T04:52:39;14.90;99.90
52513;DHT22;38422;53.172;6.974;2022-09-12T04:55:06;14.80;99.90
52513;DHT22;38422;53.172;6.974;2022-09-12T04:57:32;14.80;99.90
52513;DHT22;38422;53.172;6.974;2022-09-12T04:59:58;14.80;99.90
52513;DHT22;38422;53.172;6.974;2022-09-12T05:02:24;14.80;99.90
52513;DHT22;38422;53.172;6.974;2022-09-12T05:04:50;14.80;99.90
52513;DHT22;38422;53.172;6.974;2022-09-12T05:07:17;14.80;99.90
52513;DHT22;38422;53.172;6.974;2022-09-12T05:09:44;14.80;99.90
52513;DHT22;38422;53.172;6.974;2022-09-12T05:12:09;14.80;99.90
52513;DHT22;38422;53.172;6.974;2022-09-12T05:14:35;14.80;99.90
52513;DHT22;38422;53.172;6.974;2022-09-12T05:17:02;14.90;99.90
52513;DHT22;38422;53.172;6.974;2022-09-12T05:19:29;14.90;99.90
52513;DHT22;38422;53.172;6.974;2022-09-12T05:21:55;14.90;99.90
52513;DHT22;38422;53.172;6.974;2022-09-12T05:24:21;14.90;99.90
52513;DHT22;38422;53.172;6.974;2022-09-12T05:26:46;14.90;99.90
52513;DHT22;38422;53.172;6.974;2022-09-12T05:29:12;15.00;99.90
52513;DHT22;38422;53.172;6.974;2022-09-12T05:31:37;15.00;99.90
52513;DHT22;38422;53.172;6.974;2022-09-12T05:34:03;15.00;99.90
52513;DHT22;38422;53.172;6.974;2022-09-12T05:36:32;15.10;99.90
52513;DHT22;38422;53.172;6.974;2022-09-12T05:39:00;15.10;99.90
52513;DHT22;38422;53.172;6.974;2022-09-12T05:41:28;15.30;99.90
52513;DHT22;38422;53.172;6.974;2022-09-12T05:44:00;15.30;99.90
52513;DHT22;38422;53.172;6.974;2022-09-12T05:46:28;15.30;99.90
52513;DHT22;38422;53.172;6.974;2022-09-12T05:48:54;15.40;99.90
52513;DHT22;38422;53.172;6.974;2022-09-12T05:51:22;15.40;99.90
52513;DHT22;38422;53.172;6.974;2022-09-12T05:53:51;15.50;99.90
52513;DHT22;38422;53.172;6.974;2022-09-12T05:56:19;15.50;99.90
52513;DHT22;38422;53.172;6.974;2022-09-12T05:58:47;15.50;99.90
52513;DHT22;38422;53.172;6.974;2022-09-12T06:01:18;15.60;99.90
52513;DHT22;38422;53.172;6.974;2022-09-12T06:03:47;15.50;99.90
52513;DHT22;38422;53.172;6.974;2022-09-12T06:06:15;15.60;99.90
52513;DHT22;38422;53.172;6.974;2022-09-12T06:08:43;15.60;99.90
52513;DHT22;38422;53.172;6.974;2022-09-12T06:11:12;15.60;99.90
52513;DHT22;38422;53.172;6.974;2022-09-12T06:13:39;15.60;99.90
52513;DHT22;38422;53.172;6.974;2022-09-12T06:16:13;15.70;99.90
52513;DHT22;38422;53.172;6.974;2022-09-12T06:18:40;15.70;99.90
52513;DHT22;38422;53.172;6.974;2022-09-12T06:21:10;15.70;99.90
52513;DHT22;38422;53.172;6.974;2022-09-12T06:23:37;15.70;99.90
52513;DHT22;38422;53.172;6.974;2022-09-12T06:26:04;15.70;99.90
52513;DHT22;38422;53.172;6.974;2022-09-12T06:28:31;15.70;99.90
52513;DHT22;38422;53.172;6.974;2022-09-12T06:31:03;15.70;99.90
52513;DHT22;38422;53.172;6.974;2022-09-12T06:33:33;15.80;99.90
52513;DHT22;38422;53.172;6.974;2022-09-12T06:36:26;15.80;99.90
52513;DHT22;38422;53.172;6.974;2022-09-12T06:38:57;15.80;99.90
52513;DHT22;38422;53.172;6.974;2022-09-12T06:41:24;15.80;99.90
52513;DHT22;38422;53.172;6.974;2022-09-12T06:43:50;15.90;99.90
52513;DHT22;38422;53.172;6.974;2022-09-12T06:46:16;16.00;99.90
52513;DHT22;38422;53.172;6.974;2022-09-12T06:48:43;16.00;99.90
52513;DHT22;38422;53.172;6.974;2022-09-12T06:51:11;16.10;99.90
52513;DHT22;38422;53.172;6.974;2022-09-12T06:53:38;16.10;99.90
52513;DHT22;38422;53.172;6.974;2022-09-12T06:56:12;16.20;99.90
52513;DHT22;38422;53.172;6.974;2022-09-12T06:58:38;16.20;99.90
52513;DHT22;38422;53.172;6.974;2022-09-12T07:01:07;16.20;99.90
52513;DHT22;38422;53.172;6.974;2022-09-12T07:03:34;16.30;99.90
52513;DHT22;38422;53.172;6.974;2022-09-12T07:06:04;16.30;99.90
52513;DHT22;38422;53.172;6.974;2022-09-12T07:08:31;16.30;99.90
52513;DHT22;38422;53.172;6.974;2022-09-12T07:11:15;16.40;99.90
52513;DHT22;38422;53.172;6.974;2022-09-12T07:13:42;16.40;99.90
52513;DHT22;38422;53.172;6.974;2022-09-12T07:16:09;16.40;99.90
52513;DHT22;38422;53.172;6.974;2022-09-12T07:18:36;16.50;99.90
52513;DHT22;38422;53.172;6.974;2022-09-12T07:21:12;16.50;99.90
52513;DHT22;38422;53.172;6.974;2022-09-12T07:23:39;16.50;99.90
52513;DHT22;38422;53.172;6.974;2022-09-12T07:26:05;16.60;99.90
52513;DHT22;38422;53.172;6.974;2022-09-12T07:28:32;16.60;99.90
52513;DHT22;38422;53.172;6.974;2022-09-12T07:31:03;16.60;99.90
52513;DHT22;38422;53.172;6.974;2022-09-12T07:33:29;16.60;99.90
52513;DHT22;38422;53.172;6.974;2022-09-12T07:36:03;16.60;99.90
52513;DHT22;38422;53.172;6.974;2022-09-12T07:38:29;16.70;99.90
52513;DHT22;38422;53.172;6.974;2022-09-12T07:40:55;16.70;99.90
52513;DHT22;38422;53.172;6.974;2022-09-12T07:43:22;16.70;99.90
52513;DHT22;38422;53.172;6.974;2022-09-12T07:45:47;16.80;99.90
52513;DHT22;38422;53.172;6.974;2022-09-12T07:48:13;16.80;99.90
52513;DHT22;38422;53.172;6.974;2022-09-12T07:50:39;16.90;99.90
52513;DHT22;38422;53.172;6.974;2022-09-12T07:53:04;16.90;99.90
52513;DHT22;38422;53.172;6.974;2022-09-12T07:55:31;17.00;99.90
52513;DHT22;38422;53.172;6.974;2022-09-12T07:57:57;17.00;99.90
52513;DHT22;38422;53.172;6.974;2022-09-12T08:00:23;17.10;99.90
52513;DHT22;38422;53.172;6.974;2022-09-12T08:02:52;17.20;99.90
52513;DHT22;38422;53.172;6.974;2022-09-12T08:05:19;17.30;99.90
52513;DHT22;38422;53.172;6.974;2022-09-12T08:07:48;17.30;99.90
52513;DHT22;38422;53.172;6.974;2022-09-12T08:10:14;17.40;99.90
52513;DHT22;38422;53.172;6.974;2022-09-12T08:12:40;17.50;99.90
52513;DHT22;38422;53.172;6.974;2022-09-12T08:15:06;17.50;99.90
52513;DHT22;38422;53.172;6.974;2022-09-12T08:17:32;17.60;99.90
52513;DHT22;38422;53.172;6.974;2022-09-12T08:19:58;17.60;99.90
52513;DHT22;38422;53.172;6.974;2022-09-12T08:22:24;17.60;99.90
52513;DHT22;38422;53.172;6.974;2022-09-12T08:24:50;17.70;99.90
52513;DHT22;38422;53.172;6.974;2022-09-12T08:27:15;17.70;99.90
52513;DHT22;38422;53.172;6.974;2022-09-12T08:29:41;17.70;99.90
52513;DHT22;38422;53.172;6.974;2022-09-12T08:32:07;17.70;99.90
52513;DHT22;38422;53.172;6.974;2022-09-12T08:34:33;17.70;99.90
52513;DHT22;38422;53.172;6.974;2022-09-12T08:36:58;17.80;99.90
52513;DHT22;38422;53.172;6.974;2022-09-12T08:39:24;17.90;99.90
52513;DHT22;38422;53.172;6.974;2022-09-12T08:42:11;18.00;99.90
52513;DHT22;38422;53.172;6.974;2022-09-12T08:47:45;18.20;99.90
52513;DHT22;38422;53.172;6.974;2022-09-12T08:50:19;18.30;99.90
52513;DHT22;38422;53.172;6.974;2022-09-12T08:57:56;18.40;99.90
52513;DHT22;38422;53.172;6.974;2022-09-12T09:00:22;18.40;99.90
52513;DHT22;38422;53.172;6.974;2022-09-12T09:08:29;18.60;99.90
52513;DHT22;38422;53.172;6.974;2022-09-12T09:17:31;18.80;99.90
52513;DHT22;38422;53.172;6.974;2022-09-12T09:26:01;18.90;99.90
52513;DHT22;38422;53.172;6.974;2022-09-12T09:28:44;19.00;99.90
52513;DHT22;38422;53.172;6.974;2022-09-12T09:31:15;19.10;99.90
52513;DHT22;38422;53.172;6.974;2022-09-12T09:33:41;19.20;99.90
52513;DHT22;38422;53.172;6.974;2022-09-12T09:44:21;19.70;99.90
52513;DHT22;38422;53.172;6.974;2022-09-12T09:46:54;19.70;99.90
52513;DHT22;38422;53.172;6.974;2022-09-12T09:49:20;19.80;99.90
52513;DHT22;38422;53.172;6.974;2022-09-12T09:51:47;19.80;99.90
52513;DHT22;38422;53.172;6.974;2022-09-12T09:54:25;19.80;99.90
52513;DHT22;38422;53.172;6.974;2022-09-12T09:56:54;19.70;99.90
52513;DHT22;38422;53.172;6.974;2022-09-12T09:59:30;19.80;99.90
52513;DHT22;38422;53.172;6.974;2022-09-12T10:02:07;19.80;99.90
52513;DHT22;38422;53.172;6.974;2022-09-12T10:04:54;19.90;99.90
52513;DHT22;38422;53.172;6.974;2022-09-12T10:07:21;20.00;99.90
52513;DHT22;38422;53.172;6.974;2022-09-12T10:10:18;20.10;99.90
52513;DHT22;38422;53.172;6.974;2022-09-12T10:12:44;20.20;99.90
52513;DHT22;38422;53.172;6.974;2022-09-12T10:15:21;20.40;99.90
52513;DHT22;38422;53.172;6.974;2022-09-12T10:17:49;20.60;99.90
52513;DHT22;38422;53.172;6.974;2022-09-12T10:20:39;20.80;99.90
52513;DHT22;38422;53.172;6.974;2022-09-12T10:23:33;21.10;99.90
52513;DHT22;38422;53.172;6.974;2022-09-12T10:26:12;21.30;99.90
52513;DHT22;38422;53.172;6.974;2022-09-12T10:28:50;21.50;99.90
52513;DHT22;38422;53.172;6.974;2022-09-12T10:31:34;21.70;99.90
52513;DHT22;38422;53.172;6.974;2022-09-12T10:34:03;21.80;99.90
52513;DHT22;38422;53.172;6.974;2022-09-12T10:36:37;22.00;99.90
52513;DHT22;38422;53.172;6.974;2022-09-12T10:39:04;22.20;99.90
52513;DHT22;38422;53.172;6.974;2022-09-12T10:41:35;22.40;99.90
52513;DHT22;38422;53.172;6.974;2022-09-12T10:44:15;22.70;99.90
52513;DHT22;38422;53.172;6.974;2022-09-12T10:46:41;22.90;99.90
52513;DHT22;38422;53.172;6.974;2022-09-12T10:51:39;23.30;99.60
52513;DHT22;38422;53.172;6.974;2022-09-12T10:54:09;23.50;99.80
52513;DHT22;38422;53.172;6.974;2022-09-12T11:02:29;24.10;97.30
52513;DHT22;38422;53.172;6.974;2022-09-12T11:07:58;23.80;96.90
52513;DHT22;38422;53.172;6.974;2022-09-12T11:13:20;24.10;97.10
52513;DHT22;38422;53.172;6.974;2022-09-12T11:30:16;25.30;93.90
52513;DHT22;38422;53.172;6.974;2022-09-12T11:35:38;25.40;92.20
52513;DHT22;38422;53.172;6.974;2022-09-12T11:41:24;25.30;93.70
52513;DHT22;38422;53.172;6.974;2022-09-12T11:46:37;25.60;92.20
52513;DHT22;38422;53.172;6.974;2022-09-12T11:49:27;25.70;93.20
52513;DHT22;38422;53.172;6.974;2022-09-12T11:52:14;25.80;92.60
52513;DHT22;38422;53.172;6.974;2022-09-12T12:00:01;26.10;91.00
52513;DHT22;38422;53.172;6.974;2022-09-12T12:08:01;26.00;91.70
52513;DHT22;38422;53.172;6.974;2022-09-12T12:18:36;26.20;90.50
52513;DHT22;38422;53.172;6.974;2022-09-12T12:34:41;26.60;89.20
52513;DHT22;38422;53.172;6.974;2022-09-12T12:48:09;27.10;87.80
52513;DHT22;38422;53.172;6.974;2022-09-12T12:50:36;27.30;87.90
52513;DHT22;38422;53.172;6.974;2022-09-12T12:53:27;27.30;88.20
52513;DHT22;38422;53.172;6.974;2022-09-12T12:55:54;27.40;87.50
52513;DHT22;38422;53.172;6.974;2022-09-12T12:58:37;27.30;87.30
52513;DHT22;38422;53.172;6.974;2022-09-12T13:01:13;27.30;87.90
52513;DHT22;38422;53.172;6.974;2022-09-12T13:09:05;27.60;87.00
52513;DHT22;38422;53.172;6.974;2022-09-12T13:11:39;27.70;83.10
52513;DHT22;38422;53.172;6.974;2022-09-12T13:14:30;27.50;84.50
52513;DHT22;38422;53.172;6.974;2022-09-12T13:16:54;27.60;84.60
52513;DHT22;38422;53.172;6.974;2022-09-12T13:19:31;27.50;83.60
52513;DHT22;38422;53.172;6.974;2022-09-12T13:22:06;27.50;84.70
52513;DHT22;38422;53.172;6.974;2022-09-12T13:24:33;27.60;84.70
52513;DHT22;38422;53.172;6.974;2022-09-12T13:26:59;27.60;85.90
52513;DHT22;38422;53.172;6.974;2022-09-12T13:39:48;27.10;83.80
52513;DHT22;38422;53.172;6.974;2022-09-12T13:42:37;27.20;84.50
52513;DHT22;38422;53.172;6.974;2022-09-12T13:47:47;27.20;82.10
52513;DHT22;38422;53.172;6.974;2022-09-12T13:50:20;27.30;82.30
52513;DHT22;38422;53.172;6.974;2022-09-12T13:52:56;27.20;81.20
52513;DHT22;38422;53.172;6.974;2022-09-12T13:58:00;27.30;82.40
52513;DHT22;38422;53.172;6.974;2022-09-12T14:00:27;27.40;82.80
52513;DHT22;38422;53.172;6.974;2022-09-12T14:02:56;27.50;82.30
52513;DHT22;38422;53.172;6.974;2022-09-12T14:05:44;27.50;82.20
52513;DHT22;38422;53.172;6.974;2022-09-12T14:08:12;27.20;79.10
52513;DHT22;38422;53.172;6.974;2022-09-12T14:10:43;27.00;78.10
52513;DHT22;38422;53.172;6.974;2022-09-12T14:13:17;26.90;78.90
52513;DHT22;38422;53.172;6.974;2022-09-12T14:15:46;27.00;79.00
52513;DHT22;38422;53.172;6.974;2022-09-12T14:18:32;27.00;79.40
52513;DHT22;38422;53.172;6.974;2022-09-12T14:21:19;27.10;80.10
52513;DHT22;38422;53.172;6.974;2022-09-12T14:23:50;27.10;79.50
52513;DHT22;38422;53.172;6.974;2022-09-12T14:26:16;27.10;79.90
52513;DHT22;38422;53.172;6.974;2022-09-12T14:28:43;27.10;80.30
52513;DHT22;38422;53.172;6.974;2022-09-12T14:38:50;26.90;79.50
52513;DHT22;38422;53.172;6.974;2022-09-12T14:41:23;26.90;80.00
52513;DHT22;38422;53.172;6.974;2022-09-12T14:43:53;26.90;80.50
52513;DHT22;38422;53.172;6.974;2022-09-12T14:46:36;26.90;80.40
52513;DHT22;38422;53.172;6.974;2022-09-12T14:57:00;26.70;81.50
52513;DHT22;38422;53.172;6.974;2022-09-12T14:59:36;26.50;81.80
52513;DHT22;38422;53.172;6.974;2022-09-12T15:10:29;25.90;83.40
52513;DHT22;38422;53.172;6.974;2022-09-12T15:13:09;25.80;84.00
52513;DHT22;38422;53.172;6.974;2022-09-12T15:15:44;25.90;84.10
52513;DHT22;38422;53.172;6.974;2022-09-12T15:18:10;25.90;84.20
52513;DHT22;38422;53.172;6.974;2022-09-12T15:20:38;25.90;84.70
52513;DHT22;38422;53.172;6.974;2022-09-12T15:23:09;25.90;85.30
52513;DHT22;38422;53.172;6.974;2022-09-12T15:25:37;25.90;85.10
52513;DHT22;38422;53.172;6.974;2022-09-12T15:28:12;25.80;84.40
52513;DHT22;38422;53.172;6.974;2022-09-12T15:30:39;25.90;85.00
52513;DHT22;38422;53.172;6.974;2022-09-12T15:33:05;25.80;84.50
52513;DHT22;38422;53.172;6.974;2022-09-12T15:35:31;25.80;84.40
52513;DHT22;38422;53.172;6.974;2022-09-12T15:37:57;25.90;83.70
52513;DHT22;38422;53.172;6.974;2022-09-12T15:40:23;25.90;83.60
52513;DHT22;38422;53.172;6.974;2022-09-12T15:42:50;25.90;83.60
52513;DHT22;38422;53.172;6.974;2022-09-12T15:45:27;26.00;83.80
52513;DHT22;38422;53.172;6.974;2022-09-12T15:47:54;25.90;83.10
52513;DHT22;38422;53.172;6.974;2022-09-12T15:50:19;25.90;83.70
52513;DHT22;38422;53.172;6.974;2022-09-12T15:52:45;25.90;83.60
52513;DHT22;38422;53.172;6.974;2022-09-12T15:55:16;25.70;83.20
52513;DHT22;38422;53.172;6.974;2022-09-12T15:57:42;25.70;84.20
52513;DHT22;38422;53.172;6.974;2022-09-12T16:00:08;25.50;84.30
52513;DHT22;38422;53.172;6.974;2022-09-12T16:02:34;25.50;84.50
52513;DHT22;38422;53.172;6.974;2022-09-12T16:05:00;25.30;84.50
52513;DHT22;38422;53.172;6.974;2022-09-12T16:07:26;25.20;84.80
52513;DHT22;38422;53.172;6.974;2022-09-12T16:09:52;25.10;85.00
52513;DHT22;38422;53.172;6.974;2022-09-12T16:12:18;25.00;85.50
52513;DHT22;38422;53.172;6.974;2022-09-12T16:14:43;25.00;85.90
52513;DHT22;38422;53.172;6.974;2022-09-12T16:17:09;25.10;86.40
52513;DHT22;38422;53.172;6.974;2022-09-12T16:19:35;25.10;86.60
52513;DHT22;38422;53.172;6.974;2022-09-12T16:22:01;25.10;86.50
52513;DHT22;38422;53.172;6.974;2022-09-12T16:24:27;25.10;86.90
52513;DHT22;38422;53.172;6.974;2022-09-12T16:26:52;25.10;86.70
52513;DHT22;38422;53.172;6.974;2022-09-12T16:29:18;25.20;86.80
52513;DHT22;38422;53.172;6.974;2022-09-12T16:31:44;25.20;86.80
52513;DHT22;38422;53.172;6.974;2022-09-12T16:34:09;25.20;86.90
52513;DHT22;38422;53.172;6.974;2022-09-12T16:36:35;25.20;87.20
52513;DHT22;38422;53.172;6.974;2022-09-12T16:39:01;25.20;87.20
52513;DHT22;38422;53.172;6.974;2022-09-12T16:41:26;25.20;87.10
52513;DHT22;38422;53.172;6.974;2022-09-12T16:43:53;25.10;86.80
52513;DHT22;38422;53.172;6.974;2022-09-12T16:46:23;25.10;86.80
52513;DHT22;38422;53.172;6.974;2022-09-12T16:48:50;25.00;86.80
52513;DHT22;38422;53.172;6.974;2022-09-12T16:51:19;24.90;86.80
52513;DHT22;38422;53.172;6.974;2022-09-12T16:53:45;24.80;86.80
52513;DHT22;38422;53.172;6.974;2022-09-12T16:56:11;24.70;86.70
52513;DHT22;38422;53.172;6.974;2022-09-12T16:58:39;24.70;87.10
52513;DHT22;38422;53.172;6.974;2022-09-12T17:01:10;24.60;87.20
52513;DHT22;38422;53.172;6.974;2022-09-12T17:03:36;24.50;87.40
52513;DHT22;38422;53.172;6.974;2022-09-12T17:06:04;24.50;87.60
52513;DHT22;38422;53.172;6.974;2022-09-12T17:08:33;24.40;87.70
52513;DHT22;38422;53.172;6.974;2022-09-12T17:11:00;24.40;88.10
52513;DHT22;38422;53.172;6.974;2022-09-12T17:13:26;24.40;88.60
52513;DHT22;38422;53.172;6.974;2022-09-12T17:15:52;24.30;88.50
52513;DHT22;38422;53.172;6.974;2022-09-12T17:18:17;24.30;88.70
52513;DHT22;38422;53.172;6.974;2022-09-12T17:20:43;24.30;88.60
52513;DHT22;38422;53.172;6.974;2022-09-12T17:23:09;24.20;88.60
52513;DHT22;38422;53.172;6.974;2022-09-12T17:25:35;24.20;89.10
52513;DHT22;38422;53.172;6.974;2022-09-12T17:28:01;24.10;89.10
52513;DHT22;38422;53.172;6.974;2022-09-12T17:30:32;24.10;89.20
52513;DHT22;38422;53.172;6.974;2022-09-12T17:32:58;24.00;89.30
52513;DHT22;38422;53.172;6.974;2022-09-12T17:35:23;24.00;89.60
52513;DHT22;38422;53.172;6.974;2022-09-12T17:37:49;24.00;89.60
52513;DHT22;38422;53.172;6.974;2022-09-12T17:40:15;23.90;89.90
52513;DHT22;38422;53.172;6.974;2022-09-12T17:42:40;23.90;90.20
52513;DHT22;38422;53.172;6.974;2022-09-12T17:45:07;23.80;90.20
52513;DHT22;38422;53.172;6.974;2022-09-12T17:47:33;23.80;90.50
52513;DHT22;38422;53.172;6.974;2022-09-12T17:49:59;23.70;90.40
52513;DHT22;38422;53.172;6.974;2022-09-12T17:52:24;23.70;90.40
52513;DHT22;38422;53.172;6.974;2022-09-12T17:54:50;23.70;90.40
52513;DHT22;38422;53.172;6.974;2022-09-12T17:57:15;23.60;90.60
52513;DHT22;38422;53.172;6.974;2022-09-12T17:59:41;23.50;90.80
52513;DHT22;38422;53.172;6.974;2022-09-12T18:02:11;23.50;90.80
52513;DHT22;38422;53.172;6.974;2022-09-12T18:04:37;23.40;90.80
52513;DHT22;38422;53.172;6.974;2022-09-12T18:07:03;23.40;91.10
52513;DHT22;38422;53.172;6.974;2022-09-12T18:09:29;23.30;91.20
52513;DHT22;38422;53.172;6.974;2022-09-12T18:11:55;23.30;91.20
52513;DHT22;38422;53.172;6.974;2022-09-12T18:14:22;23.20;91.30
52513;DHT22;38422;53.172;6.974;2022-09-12T18:16:48;23.20;91.40
52513;DHT22;38422;53.172;6.974;2022-09-12T18:19:14;23.20;91.40
52513;DHT22;38422;53.172;6.974;2022-09-12T18:21:39;23.10;91.30
52513;DHT22;38422;53.172;6.974;2022-09-12T18:24:05;23.10;91.30
52513;DHT22;38422;53.172;6.974;2022-09-12T18:26:32;23.00;91.30
52513;DHT22;38422;53.172;6.974;2022-09-12T18:28:58;23.00;91.30
52513;DHT22;38422;53.172;6.974;2022-09-12T18:31:26;23.00;91.40
52513;DHT22;38422;53.172;6.974;2022-09-12T18:33:53;23.00;91.60
52513;DHT22;38422;53.172;6.974;2022-09-12T18:36:19;23.00;91.70
52513;DHT22;38422;53.172;6.974;2022-09-12T18:38:45;22.90;91.70
52513;DHT22;38422;53.172;6.974;2022-09-12T18:41:15;22.90;91.80
52513;DHT22;38422;53.172;6.974;2022-09-12T18:43:41;22.80;91.80
52513;DHT22;38422;53.172;6.974;2022-09-12T18:46:15;22.70;91.90
52513;DHT22;38422;53.172;6.974;2022-09-12T18:48:41;22.60;92.00
52513;DHT22;38422;53.172;6.974;2022-09-12T18:51:13;22.60;92.20
52513;DHT22;38422;53.172;6.974;2022-09-12T18:53:39;22.50;92.30
52513;DHT22;38422;53.172;6.974;2022-09-12T18:56:10;22.50;92.30
52513;DHT22;38422;53.172;6.974;2022-09-12T18:58:38;22.40;92.30
52513;DHT22;38422;53.172;6.974;2022-09-12T19:01:09;22.40;92.40
52513;DHT22;38422;53.172;6.974;2022-09-12T19:03:35;22.40;92.50